createdAt,value
2018-03-14T00:03:27.917Z,8.00
2018-03-14T00:22:42.109Z,5.10
2018-03-14T00:32:47.590Z,5.37
2018-03-14T00:34:51.081Z,6.07
2018-03-14T00:42:14.747Z,5.97
2018-03-14T00:46:56.274Z,5.50
2018-03-14T00:51:28.824Z,5.30
2018-03-14T00:53:32.578Z,4.90
2018-03-14T00:58:05.495Z,4.90
2018-03-14T01:02:39.430Z,4.77
2018-03-14T01:04:49.071Z,6.10
2018-03-14T01:12:12.354Z,5.10
2018-03-14T01:16:46.439Z,5.80
2018-03-14T01:18:47.525Z,5.40
2018-03-14T01:20:50.150Z,5.70
2018-03-14T01:22:51.210Z,6.30
2018-03-14T01:24:52.756Z,5.73
2018-03-14T01:26:53.821Z,5.60
2018-03-14T01:28:57.094Z,5.87
2018-03-14T01:31:01.701Z,5.57
2018-03-14T01:33:02.705Z,5.80
2018-03-14T01:35:05.455Z,5.60
2018-03-14T01:37:06.680Z,5.27
2018-03-14T01:39:09.220Z,5.00
2018-03-14T01:41:10.253Z,5.73
2018-03-14T01:43:11.240Z,5.77
2018-03-14T01:45:12.812Z,5.40
2018-03-14T01:47:15.182Z,4.90
2018-03-14T01:49:16.171Z,4.47
2018-03-14T01:51:17.135Z,6.00
2018-03-14T01:53:40.713Z,5.63
2018-03-14T01:55:41.806Z,5.17
2018-03-14T01:57:43.000Z,5.57
2018-03-14T01:59:43.967Z,5.00
2018-03-14T02:01:44.915Z,4.83
2018-03-14T02:03:46.222Z,5.30
2018-03-14T02:05:47.224Z,5.97
2018-03-14T02:07:48.188Z,5.17
2018-03-14T02:09:49.192Z,5.47
2018-03-14T02:11:50.749Z,6.40
2018-03-14T02:13:51.867Z,6.70
2018-03-14T02:15:53.111Z,6.20
2018-03-14T02:17:54.161Z,5.60
2018-03-14T02:19:55.408Z,5.83
2018-03-14T02:21:56.604Z,6.03
2018-03-14T02:23:57.645Z,5.87
2018-03-14T02:25:58.612Z,5.80
2018-03-14T02:28:01.218Z,6.23
2018-03-14T02:30:03.205Z,6.60
2018-03-14T02:32:05.852Z,6.50
2018-03-14T02:34:07.535Z,8.03
2018-03-14T02:36:09.117Z,6.30
2018-03-14T02:38:12.490Z,6.37
2018-03-14T02:40:13.566Z,6.53
2018-03-14T02:42:15.434Z,6.53
2018-03-14T02:44:16.506Z,6.67
2018-03-14T02:46:17.472Z,5.63
2018-03-14T02:48:19.859Z,6.00
2018-03-14T02:50:20.853Z,6.00
2018-03-14T02:52:21.858Z,6.47
2018-03-14T02:54:23.682Z,5.57
2018-03-14T02:56:38.918Z,6.87
2018-03-14T02:58:39.956Z,6.13
2018-03-14T03:00:40.919Z,5.57
2018-03-14T03:02:42.031Z,5.00
2018-03-14T03:04:43.041Z,5.27
2018-03-14T03:06:51.618Z,4.90
2018-03-14T03:08:52.623Z,5.23
2018-03-14T03:10:53.772Z,5.00
2018-03-14T03:13:03.814Z,5.80
2018-03-14T03:15:05.005Z,4.30
2018-03-14T03:17:06.012Z,4.60
2018-03-14T03:19:06.988Z,4.93
2018-03-14T03:21:09.683Z,4.90
2018-03-14T03:23:12.264Z,4.70
2018-03-14T03:25:22.181Z,5.57
2018-03-14T03:27:23.230Z,5.30
2018-03-14T03:29:27.662Z,5.73
2018-03-14T03:31:29.998Z,6.60
2018-03-14T03:33:31.752Z,5.80
2018-03-14T03:35:52.417Z,6.30
2018-03-14T03:37:59.486Z,6.40
2018-03-14T03:40:02.328Z,7.40
2018-03-14T03:42:05.686Z,6.43
2018-03-14T03:44:11.234Z,6.53
2018-03-14T03:46:12.331Z,6.70
2018-03-14T03:48:14.110Z,6.37
2018-03-14T03:50:15.111Z,8.47
2018-03-14T03:52:18.686Z,7.07
2018-03-14T03:54:20.884Z,7.30
2018-03-14T03:56:21.997Z,7.80
2018-03-14T03:58:22.996Z,7.77
2018-03-14T04:00:26.188Z,7.10
2018-03-14T04:02:27.196Z,7.60
2018-03-14T04:06:36.832Z,8.20
2018-03-14T04:08:42.540Z,8.80
2018-03-14T04:10:43.511Z,8.10
2018-03-14T04:12:44.495Z,7.00
2018-03-14T04:14:49.967Z,7.40
2018-03-14T04:16:51.152Z,6.37
2018-03-14T04:18:52.176Z,6.30
2018-03-14T04:20:53.263Z,6.70
2018-03-14T04:22:54.256Z,7.07
2018-03-14T04:24:55.307Z,7.23
2018-03-14T04:26:56.360Z,6.87
2018-03-14T04:29:01.583Z,6.70
2018-03-14T04:31:02.850Z,7.80
2018-03-14T04:33:03.980Z,7.33
2018-03-14T04:35:04.944Z,7.40
2018-03-14T04:37:10.824Z,6.40
2018-03-14T04:39:11.784Z,6.63
2018-03-14T04:41:12.772Z,7.80
2018-03-14T04:43:14.638Z,7.40
2018-03-14T04:45:15.657Z,7.30
2018-03-14T04:47:16.626Z,8.10
2018-03-14T04:49:17.809Z,8.87
2018-03-14T04:51:18.950Z,6.90
2018-03-14T04:53:22.616Z,7.00
2018-03-14T04:55:24.568Z,7.20
2018-03-14T04:57:25.741Z,6.93
2018-03-14T04:59:27.539Z,8.90
2018-03-14T05:01:37.202Z,7.53
2018-03-14T05:03:38.261Z,7.90
2018-03-14T05:05:39.349Z,7.00
2018-03-14T05:07:40.325Z,8.87
2018-03-14T05:09:41.274Z,8.40
2018-03-14T05:11:42.240Z,8.17
2018-03-14T05:13:43.992Z,7.77
2018-03-14T05:15:44.964Z,7.90
2018-03-14T05:17:45.942Z,8.37
2018-03-14T05:19:46.910Z,8.67
2018-03-14T05:21:48.654Z,8.20
2018-03-14T05:23:49.611Z,7.70
2018-03-14T05:25:50.557Z,8.50
2018-03-14T05:27:51.546Z,8.57
2018-03-14T05:29:52.602Z,8.23
2018-03-14T05:31:54.844Z,8.43
2018-03-14T05:33:55.888Z,8.33
2018-03-14T05:35:57.650Z,7.40
2018-03-14T05:38:00.138Z,8.23
2018-03-14T05:40:01.975Z,7.47
2018-03-14T05:42:03.486Z,8.13
2018-03-14T05:44:04.504Z,7.87
2018-03-14T05:46:05.459Z,7.87
2018-03-14T05:48:06.470Z,7.53
2018-03-14T05:50:07.468Z,8.17
2018-03-14T05:52:08.471Z,7.97
2018-03-14T05:54:09.808Z,8.40
2018-03-14T05:56:11.200Z,8.37
2018-03-14T05:58:12.202Z,8.47
2018-03-14T06:00:13.173Z,8.73
2018-03-14T06:02:14.392Z,9.07
2018-03-14T06:04:15.342Z,7.80
2018-03-14T06:06:16.303Z,8.93
2018-03-14T06:08:18.544Z,8.93
2018-03-14T06:10:20.044Z,8.63
2018-03-14T06:12:22.215Z,7.80
2018-03-14T06:14:23.249Z,8.93
2018-03-14T06:16:24.385Z,8.43
2018-03-14T06:18:25.321Z,7.80
2018-03-14T06:20:26.675Z,8.57
2018-03-14T06:22:29.496Z,9.90
2018-03-14T06:24:30.513Z,9.63
2018-03-14T06:26:31.663Z,7.83
2018-03-14T06:28:33.088Z,8.80
2018-03-14T06:30:34.105Z,9.37
2018-03-14T06:32:35.071Z,9.50
2018-03-14T06:34:37.915Z,8.67
2018-03-14T06:36:38.928Z,9.07
2018-03-14T06:38:39.928Z,8.00
2018-03-14T06:40:40.902Z,8.80
2018-03-14T06:42:41.867Z,8.60
2018-03-14T06:44:42.831Z,8.07
2018-03-14T06:46:43.801Z,8.40
2018-03-14T06:48:45.312Z,9.33
2018-03-14T06:50:46.317Z,9.10
2018-03-14T06:52:47.355Z,7.40
2018-03-14T06:54:48.392Z,8.23
2018-03-14T06:56:49.359Z,8.40
2018-03-14T06:59:02.674Z,8.93
2018-03-14T07:01:16.339Z,7.97
2018-03-14T07:03:29.655Z,9.23
2018-03-14T07:05:43.758Z,8.70
2018-03-14T07:07:45.190Z,9.23
2018-03-14T07:09:46.951Z,7.53
2018-03-14T07:11:47.915Z,7.90
2018-03-14T07:13:48.884Z,7.80
2018-03-14T07:15:49.873Z,7.97
2018-03-14T07:17:52.126Z,7.47
2018-03-14T07:19:53.873Z,7.50
2018-03-14T07:21:55.595Z,7.20
2018-03-14T07:23:56.581Z,6.53
2018-03-14T07:25:57.527Z,8.00
2018-03-14T07:28:00.520Z,8.10
2018-03-14T07:30:02.150Z,7.47
2018-03-14T07:32:03.160Z,6.53
2018-03-14T07:34:04.160Z,7.10
2018-03-14T07:36:05.168Z,7.57
2018-03-14T07:38:06.174Z,6.00
2018-03-14T07:40:07.143Z,6.70
2018-03-14T07:42:08.115Z,6.70
2018-03-14T07:44:09.092Z,6.60
2018-03-14T07:46:10.067Z,6.77
2018-03-14T07:48:11.077Z,6.30
2018-03-14T07:50:17.782Z,7.10
2018-03-14T07:52:18.821Z,6.93
2018-03-14T07:54:19.775Z,7.47
2018-03-14T07:56:21.924Z,6.73
2018-03-14T07:58:22.989Z,7.30
2018-03-14T08:00:23.966Z,6.47
2018-03-14T08:02:25.556Z,5.50
2018-03-14T08:04:26.561Z,6.20
2018-03-14T08:06:27.548Z,6.07
2018-03-14T08:08:28.496Z,6.60
2018-03-14T08:10:29.521Z,5.80
2018-03-14T08:12:30.518Z,5.80
2018-03-14T08:14:31.520Z,6.53
2018-03-14T08:16:32.544Z,6.10
2018-03-14T08:18:33.567Z,5.80
2018-03-14T08:20:34.535Z,5.50
2018-03-14T08:22:35.520Z,5.90
2018-03-14T08:24:37.659Z,4.87
2018-03-14T08:26:39.211Z,4.83
2018-03-14T08:28:40.233Z,5.30
2018-03-14T08:30:41.239Z,4.97
2018-03-14T08:32:42.199Z,5.37
2018-03-14T08:34:43.217Z,5.90
2018-03-14T08:36:44.203Z,5.07
2018-03-14T08:38:47.656Z,5.60
2018-03-14T08:40:49.770Z,3.67
2018-03-14T08:42:50.821Z,4.03
2018-03-14T08:44:51.829Z,3.30
2018-03-14T08:46:52.818Z,3.40
2018-03-14T08:48:53.786Z,3.80
2018-03-14T08:50:54.761Z,4.60
2018-03-14T08:52:55.711Z,3.50
2018-03-14T08:54:56.723Z,3.80
2018-03-14T08:57:00.092Z,3.20
2018-03-14T08:59:01.119Z,4.57
2018-03-14T09:01:02.349Z,4.10
2018-03-14T09:03:03.858Z,5.50
2018-03-14T09:05:04.856Z,3.77
2018-03-14T09:07:05.831Z,4.47
2018-03-14T09:09:06.787Z,3.63
2018-03-14T09:11:07.778Z,3.67
2018-03-14T09:13:09.534Z,3.00
2018-03-14T09:15:14.405Z,3.10
2018-03-14T09:17:19.074Z,3.53
2018-03-14T09:19:20.570Z,3.50
2018-03-14T09:21:24.044Z,3.30
2018-03-14T09:23:25.608Z,2.00
2018-03-14T09:25:26.624Z,2.70
2018-03-14T09:27:27.665Z,2.40
2018-03-14T09:29:28.656Z,3.07
2018-03-14T09:31:32.997Z,3.00
2018-03-14T09:33:34.032Z,2.97
2018-03-14T09:35:35.013Z,2.83
2018-03-14T09:37:36.038Z,2.80
2018-03-14T09:39:36.995Z,2.40
2018-03-14T09:41:38.703Z,2.40
2018-03-14T09:43:39.727Z,3.10
2018-03-14T09:45:40.681Z,2.77
2018-03-14T09:47:41.634Z,3.03
2018-03-14T09:49:42.692Z,3.40
2018-03-14T09:51:43.687Z,2.33
2018-03-14T09:53:48.575Z,2.20
2018-03-14T09:55:50.371Z,1.97
2018-03-14T09:57:58.918Z,2.43
2018-03-14T09:59:59.974Z,2.20
2018-03-14T10:02:00.926Z,2.67
2018-03-14T10:04:03.284Z,3.00
2018-03-14T10:06:04.992Z,2.90
2018-03-14T10:08:06.007Z,2.90
2018-03-14T10:10:06.955Z,3.27
2018-03-14T10:12:07.919Z,2.23
2018-03-14T10:14:08.956Z,2.77
2018-03-14T10:16:19.746Z,3.20
2018-03-14T10:18:20.861Z,3.70
2018-03-14T10:20:21.803Z,3.20
2018-03-14T10:22:22.863Z,3.20
2018-03-14T10:24:23.809Z,4.33
2018-03-14T10:26:27.218Z,4.13
2018-03-14T10:28:28.331Z,3.60
2018-03-14T10:30:29.315Z,3.77
2018-03-14T10:32:32.505Z,3.00
2018-03-14T10:34:33.502Z,2.60
2018-03-14T10:36:44.196Z,3.03
2018-03-14T10:38:46.941Z,3.27
2018-03-14T10:41:05.167Z,2.60
2018-03-14T10:43:06.288Z,2.80
2018-03-14T10:45:07.283Z,2.80
2018-03-14T10:47:08.255Z,2.70
2018-03-14T10:49:09.259Z,3.13
2018-03-14T10:51:10.177Z,2.97
2018-03-14T10:53:11.150Z,2.63
2018-03-14T10:55:12.115Z,3.30
2018-03-14T10:57:13.087Z,2.47
2018-03-14T10:59:19.112Z,3.30
2018-03-14T11:01:21.235Z,2.73
2018-03-14T11:03:28.296Z,2.87
2018-03-14T11:05:29.270Z,2.40
2018-03-14T11:07:33.184Z,3.00
2018-03-14T11:09:35.819Z,2.60
2018-03-14T11:11:38.568Z,3.10
2018-03-14T11:13:39.621Z,3.20
2018-03-14T11:15:40.597Z,2.90
2018-03-14T11:17:42.296Z,3.10
2018-03-14T11:19:43.259Z,2.47
2018-03-14T11:21:46.952Z,2.77
2018-03-14T11:23:48.027Z,2.50
2018-03-14T11:25:48.984Z,2.97
2018-03-14T11:27:52.655Z,2.63
2018-03-14T11:29:53.676Z,2.60
2018-03-14T11:31:54.639Z,3.17
2018-03-14T11:33:55.579Z,3.00
2018-03-14T11:35:56.556Z,3.20
2018-03-14T11:53:21.946Z,2.73
2018-03-14T11:57:56.528Z,2.53
2018-03-14T11:59:58.453Z,3.03
2018-03-14T12:02:13.122Z,3.30
2018-03-14T12:06:58.982Z,3.00
2018-03-14T12:09:14.659Z,2.03
2018-03-14T12:11:15.832Z,2.37
2018-03-14T12:13:42.437Z,2.53
2018-03-14T12:15:43.735Z,2.63
2018-03-14T12:17:45.696Z,2.80
2018-03-14T12:19:46.719Z,2.57
2018-03-14T12:21:50.144Z,2.70
2018-03-14T12:23:51.255Z,2.73
2018-03-14T12:26:08.433Z,2.93
2018-03-14T12:28:09.493Z,2.70
2018-03-14T12:30:12.438Z,2.93
2018-03-14T12:32:13.610Z,2.70
2018-03-14T12:34:14.551Z,2.63
2018-03-14T12:36:16.393Z,2.70
2018-03-14T12:38:17.527Z,2.33
2018-03-14T12:40:18.517Z,2.90
2018-03-14T12:42:23.252Z,2.93
2018-03-14T12:44:24.311Z,3.33
2018-03-14T12:46:25.264Z,2.20
2018-03-14T12:48:30.160Z,3.50
2018-03-14T12:50:31.397Z,2.70
2018-03-14T12:52:32.353Z,3.23
2018-03-14T12:54:33.299Z,2.30
2018-03-14T12:56:34.247Z,3.27
2018-03-14T12:58:35.205Z,3.37
2018-03-14T13:00:36.155Z,2.73
2018-03-14T13:02:37.102Z,2.97
2018-03-14T13:04:38.050Z,3.13
2018-03-14T13:06:39.012Z,2.47
2018-03-14T13:08:41.004Z,2.73
2018-03-14T13:10:42.071Z,2.73
2018-03-14T13:12:43.024Z,2.83
2018-03-14T13:14:43.963Z,2.40
2018-03-14T13:16:44.931Z,2.90
2018-03-14T13:18:47.033Z,2.90
2018-03-14T13:20:48.019Z,3.03
2018-03-14T13:22:48.968Z,2.90
2018-03-14T13:24:56.109Z,2.97
2018-03-14T13:26:57.266Z,3.13
2018-03-14T13:28:58.244Z,3.07
2018-03-14T13:30:59.193Z,2.60
2018-03-14T13:33:00.153Z,2.77
2018-03-14T13:35:01.091Z,2.97
2018-03-14T13:37:04.936Z,3.07
2018-03-14T13:39:06.025Z,3.20
2018-03-14T13:41:06.967Z,2.80
2018-03-14T13:43:08.508Z,3.40
2018-03-14T13:45:09.447Z,3.00
2018-03-14T13:49:25.691Z,2.73
2018-03-14T13:51:26.643Z,2.80
2018-03-14T13:53:27.923Z,3.10
2018-03-14T13:55:28.872Z,2.90
2018-03-14T13:57:30.650Z,2.93
2018-03-14T13:59:31.612Z,2.77
2018-03-14T14:01:32.592Z,3.17
2018-03-14T14:03:34.669Z,3.40
2018-03-14T14:05:35.770Z,3.30
2018-03-14T14:07:37.046Z,3.30
2018-03-14T14:09:38.083Z,3.47
2018-03-14T14:11:39.022Z,3.40
2018-03-14T14:13:40.011Z,3.80
2018-03-14T14:15:40.992Z,3.60
2018-03-14T14:17:42.763Z,3.37
2018-03-14T14:19:43.755Z,2.70
2018-03-14T14:21:44.735Z,3.50
2018-03-14T14:23:46.122Z,3.30
2018-03-14T14:25:47.618Z,3.03
2018-03-14T14:27:48.679Z,3.60
2018-03-14T14:29:49.656Z,2.90
2018-03-14T14:31:51.762Z,3.97
2018-03-14T14:33:53.128Z,3.83
2018-03-14T14:35:54.234Z,3.23
2018-03-14T14:37:55.288Z,3.80
2018-03-14T14:39:57.578Z,3.10
2018-03-14T14:41:58.688Z,3.30
2018-03-14T14:44:00.458Z,3.70
2018-03-14T14:46:01.454Z,4.07
2018-03-14T14:48:02.456Z,3.43
2018-03-14T14:50:03.726Z,3.80
2018-03-14T14:52:05.019Z,3.80
2018-03-14T14:54:06.049Z,3.30
2018-03-14T14:56:07.248Z,3.30
2018-03-14T14:58:09.022Z,4.00
2018-03-14T15:00:10.818Z,3.30
2018-03-14T15:02:11.859Z,3.80
2018-03-14T15:04:12.835Z,3.43
2018-03-14T15:06:13.800Z,3.77
2018-03-14T15:08:14.827Z,3.47
2018-03-14T15:10:15.779Z,3.90
2018-03-14T15:12:16.728Z,4.57
2018-03-14T15:14:17.744Z,3.67
2018-03-14T15:16:18.761Z,4.00
2018-03-14T15:18:19.727Z,3.73
2018-03-14T15:20:20.763Z,4.70
2018-03-14T15:22:21.719Z,4.00
2018-03-14T15:24:22.752Z,3.20
2018-03-14T15:26:24.636Z,3.63
2018-03-14T15:28:25.624Z,3.27
2018-03-14T15:30:26.561Z,3.30
2018-03-14T15:32:27.826Z,3.77
2018-03-14T15:34:28.825Z,3.77
2018-03-14T15:36:29.842Z,3.77
2018-03-14T15:38:30.848Z,3.63
2018-03-14T15:40:31.824Z,4.30
2018-03-14T15:42:33.372Z,4.03
2018-03-14T15:44:34.623Z,5.10
2018-03-14T15:46:35.756Z,3.70
2018-03-14T15:48:36.960Z,3.57
2018-03-14T15:50:37.933Z,4.37
2018-03-14T15:52:39.103Z,3.93
2018-03-14T15:54:40.129Z,3.70
2018-03-14T15:56:41.545Z,3.97
2018-03-14T15:58:42.546Z,3.67
2018-03-14T16:00:43.519Z,4.00
2018-03-14T16:02:44.783Z,4.30
2018-03-14T16:04:45.858Z,5.50
2018-03-14T16:06:46.849Z,5.07
2018-03-14T16:08:47.814Z,4.60
2018-03-14T16:10:48.769Z,4.30
2018-03-14T16:12:49.737Z,4.90
2018-03-14T16:14:50.695Z,7.73
2018-03-14T16:16:52.437Z,8.27
2018-03-14T16:18:53.444Z,8.23
2018-03-14T16:20:54.658Z,9.20
2018-03-14T16:22:55.656Z,8.80
2018-03-14T16:24:56.890Z,8.40
2018-03-14T16:26:57.963Z,9.30
2018-03-14T16:28:58.956Z,9.07
2018-03-14T16:31:00.038Z,10.20
2018-03-14T16:33:01.071Z,10.37
2018-03-14T16:35:02.136Z,11.73
2018-03-14T16:37:03.447Z,12.00
2018-03-14T16:39:04.644Z,13.93
2018-03-14T16:41:05.747Z,12.40
2018-03-14T16:43:06.921Z,10.90
2018-03-14T16:45:07.989Z,11.53
2018-03-14T16:47:09.205Z,11.63
2018-03-14T16:49:10.183Z,14.33
2018-03-14T16:51:11.544Z,25.83
2018-03-14T16:53:12.571Z,12.33
2018-03-14T16:55:13.595Z,10.60
2018-03-14T16:57:15.506Z,10.13
2018-03-14T16:59:16.597Z,8.23
2018-03-14T17:01:17.564Z,8.67
2018-03-14T17:03:19.666Z,10.20
2018-03-14T17:05:20.654Z,10.63
2018-03-14T17:07:21.740Z,12.70
2018-03-14T17:09:22.712Z,10.90
2018-03-14T17:11:23.700Z,8.63
2018-03-14T17:13:24.973Z,10.23
2018-03-14T17:15:26.229Z,9.43
2018-03-14T17:17:27.226Z,9.90
2018-03-14T17:19:28.888Z,11.67
2018-03-14T17:21:30.004Z,8.60
2018-03-14T17:23:31.000Z,7.40
2018-03-14T17:25:35.663Z,6.87
2018-03-14T17:27:36.749Z,7.10
2018-03-14T17:29:37.745Z,6.73
2018-03-14T17:31:39.553Z,5.70
2018-03-14T17:33:41.026Z,6.10
2018-03-14T17:35:42.027Z,5.10
2018-03-14T17:37:43.000Z,5.83
2018-03-14T17:39:46.323Z,6.10
2018-03-14T17:41:47.285Z,6.93
2018-03-14T17:43:49.575Z,6.73
2018-03-14T17:45:50.595Z,7.20
2018-03-14T17:47:51.932Z,5.57
2018-03-14T17:49:53.652Z,7.00
2018-03-14T17:51:54.688Z,6.50
2018-03-14T17:53:55.656Z,7.37
2018-03-14T17:55:57.459Z,8.80
2018-03-14T17:57:58.447Z,8.30
2018-03-14T17:59:59.557Z,7.90
2018-03-14T18:02:01.790Z,8.60
2018-03-14T18:04:05.315Z,9.67
2018-03-14T18:06:06.336Z,10.77
2018-03-14T18:08:07.339Z,10.17
2018-03-14T18:10:08.475Z,14.67
2018-03-14T18:12:11.044Z,12.80
2018-03-14T18:14:13.023Z,13.20
2018-03-14T18:16:14.451Z,14.27
2018-03-14T18:18:15.539Z,13.57
2018-03-14T18:20:16.771Z,12.57
2018-03-14T18:22:17.815Z,13.83
2018-03-14T18:24:18.840Z,12.60
2018-03-14T18:26:31.228Z,14.43
2018-03-14T18:28:35.718Z,12.73
2018-03-14T18:30:42.162Z,13.83
2018-03-14T18:32:43.252Z,11.73
2018-03-14T18:34:46.667Z,11.60
2018-03-14T18:36:50.667Z,13.07
2018-03-14T18:38:53.097Z,11.60
2018-03-14T18:40:54.520Z,9.80
2018-03-14T18:42:55.481Z,11.00
2018-03-14T18:44:57.347Z,10.83
2018-03-14T18:46:58.563Z,11.27
2018-03-14T18:48:59.537Z,10.80
2018-03-14T18:51:00.521Z,11.27
2018-03-14T18:53:01.478Z,12.23
2018-03-14T18:55:02.435Z,12.67
2018-03-14T18:57:21.294Z,14.70
2018-03-14T18:59:22.579Z,16.00
2018-03-14T19:01:24.430Z,16.00
2018-03-14T19:03:25.533Z,14.53
2018-03-14T19:05:26.516Z,13.50
2018-03-14T19:07:27.522Z,14.30
2018-03-14T19:09:28.498Z,14.10
2018-03-14T19:11:30.065Z,13.77
2018-03-14T19:13:31.028Z,13.13
2018-03-14T19:15:32.189Z,16.63
2018-03-14T19:17:35.764Z,14.77
2018-03-14T19:19:36.877Z,14.83
2018-03-14T19:21:37.871Z,15.13
2018-03-14T19:23:38.839Z,15.83
2018-03-14T19:25:39.808Z,14.50
2018-03-14T19:27:40.787Z,16.20
2018-03-14T19:29:41.955Z,14.60
2018-03-14T19:31:43.071Z,13.70
2018-03-14T19:33:43.952Z,13.53
2018-03-14T19:35:44.943Z,14.20
2018-03-14T19:37:46.312Z,11.27
2018-03-14T19:39:47.285Z,12.90
2018-03-14T19:41:48.266Z,12.10
2018-03-14T19:43:49.259Z,11.50
2018-03-14T19:48:17.013Z,11.57
2018-03-14T19:50:18.041Z,10.50
2018-03-14T19:52:25.475Z,11.40
2018-03-14T19:54:40.735Z,10.67
2018-03-14T19:56:41.748Z,10.50
2018-03-14T19:58:47.435Z,10.90
2018-03-14T20:00:48.680Z,10.90
2018-03-14T20:02:50.320Z,11.97
2018-03-14T20:04:51.266Z,11.93
2018-03-14T20:06:52.242Z,12.17
2018-03-14T20:08:53.252Z,12.47
2018-03-14T20:10:54.159Z,12.83
2018-03-14T20:12:58.223Z,14.00
2018-03-14T20:14:59.526Z,13.70
2018-03-14T20:17:00.608Z,14.67
2018-03-14T20:19:02.555Z,13.03
2018-03-14T20:21:09.163Z,13.33
2018-03-14T20:23:11.670Z,13.80
2018-03-14T20:25:12.723Z,13.80
2018-03-14T20:27:13.869Z,13.90
2018-03-14T20:29:16.343Z,15.10
2018-03-14T20:31:17.396Z,13.43
2018-03-14T20:33:18.669Z,14.00
2018-03-14T20:35:19.832Z,13.60
2018-03-14T20:37:22.003Z,13.63
2018-03-14T20:42:10.377Z,12.97
2018-03-14T20:44:11.421Z,11.57
2018-03-14T20:46:12.469Z,14.30
2018-03-14T20:48:13.751Z,15.30
2018-03-14T20:50:14.947Z,13.93
2018-03-14T20:52:16.200Z,12.77
2018-03-14T20:54:17.298Z,11.77
2018-03-14T20:56:25.628Z,11.77
2018-03-14T20:58:26.737Z,13.20
2018-03-14T21:00:27.736Z,11.63
2018-03-14T21:02:28.735Z,11.63
2018-03-14T21:04:29.772Z,14.20
2018-03-14T21:06:32.120Z,11.33
2018-03-14T21:08:36.736Z,11.03
2018-03-14T21:10:39.338Z,9.93
2018-03-14T21:12:40.436Z,12.80
2018-03-14T21:17:09.664Z,11.90
2018-03-14T21:19:10.669Z,12.17
2018-03-14T21:21:22.758Z,10.87
2018-03-14T21:23:28.408Z,10.30
2018-03-14T21:25:43.877Z,11.87
2018-03-14T21:27:44.975Z,11.10
2018-03-14T21:32:38.447Z,10.10
2018-03-14T21:34:40.527Z,9.80
2018-03-14T21:36:41.542Z,9.80
2018-03-14T21:38:42.514Z,9.60
2018-03-14T21:40:43.503Z,10.43
2018-03-14T21:43:03.821Z,11.03
2018-03-14T21:45:07.202Z,9.37
2018-03-14T21:47:08.242Z,11.40
2018-03-14T21:49:09.273Z,9.93
2018-03-14T21:51:11.272Z,8.93
2018-03-14T21:53:12.306Z,9.70
2018-03-14T21:55:14.329Z,8.87
2018-03-14T21:57:21.676Z,8.93
2018-03-14T21:59:26.927Z,9.10
2018-03-14T22:01:28.350Z,8.57
2018-03-14T22:03:30.306Z,10.00
2018-03-14T22:05:31.301Z,9.87
2018-03-14T22:07:32.305Z,8.73
2018-03-14T22:09:33.380Z,7.90
2018-03-14T22:11:35.343Z,9.87
2018-03-14T22:13:51.363Z,10.53
2018-03-14T22:15:52.397Z,10.13
2018-03-14T22:17:53.391Z,10.63
2018-03-14T22:19:54.504Z,9.03
2018-03-14T22:21:58.007Z,10.53
2018-03-14T22:23:59.909Z,10.83
2018-03-14T22:26:01.027Z,9.60
2018-03-14T22:28:02.105Z,11.13
2018-03-14T22:30:08.361Z,10.73
2018-03-14T22:34:34.563Z,10.30
2018-03-14T22:36:36.272Z,11.00
2018-03-14T22:38:38.121Z,12.67
2018-03-14T22:40:40.012Z,11.57
2018-03-14T22:42:41.136Z,11.97
2018-03-14T22:44:42.212Z,11.00
2018-03-14T22:46:43.305Z,11.70
2018-03-14T22:48:44.299Z,11.33
2018-03-14T22:50:54.921Z,12.13
2018-03-14T22:52:56.080Z,11.33
2018-03-14T22:54:57.187Z,11.80
2018-03-14T22:56:58.218Z,10.50
2018-03-14T22:58:59.264Z,10.57
2018-03-14T23:01:00.178Z,11.13
2018-03-14T23:03:01.149Z,11.77
2018-03-14T23:05:10.259Z,13.50
2018-03-14T23:07:20.106Z,11.77
2018-03-14T23:09:45.520Z,11.47
2018-03-14T23:11:47.165Z,11.57
2018-03-14T23:13:48.383Z,12.47
2018-03-14T23:15:53.335Z,12.07
2018-03-14T23:17:54.319Z,13.10
2018-03-14T23:19:55.286Z,12.37
2018-03-14T23:21:56.405Z,13.93
2018-03-14T23:23:57.393Z,12.83
2018-03-14T23:25:59.132Z,11.33
2018-03-14T23:28:00.356Z,13.03
2018-03-14T23:30:01.883Z,13.73
2018-03-14T23:32:02.981Z,12.50
2018-03-14T23:34:04.068Z,12.80
2018-03-14T23:36:05.103Z,14.03
2018-03-14T23:38:06.106Z,12.53
2018-03-14T23:40:07.098Z,12.70
2018-03-14T23:42:10.330Z,13.70
2018-03-14T23:44:12.816Z,13.80
2018-03-14T23:46:13.783Z,12.47
2018-03-14T23:48:16.204Z,13.47
2018-03-14T23:50:17.295Z,13.83
2018-03-14T23:52:18.266Z,14.50
2018-03-14T23:54:19.443Z,13.10
2018-03-14T23:56:20.485Z,14.23
2018-03-14T23:58:21.451Z,13.87
